Time;durP1;ratioP1;P1;durP2;ratioP2;P2;SDS_P1;SDS_P2;PMS_P1;PMS_P2;Temp;Humidity;BMP_temperature;BMP_pressure;BME280_temperature;BME280_humidity;BME280_pressure;Samples;Min_cycle;Max_cycle;Signal;HPM_P1;HPM_P2
2024/02/05 00:01:55;;;;;;;13.25;4.63;;;;;;;;;;5001764;28;20651;-69
2024/02/05 00:04:21;;;;;;;17.80;5.05;;;;;;;;;;4995823;28;20205;-69
2024/02/05 00:06:46;;;;;;;25.05;4.90;;;;;;;;;;5000277;28;20190;-69
2024/02/05 00:09:11;;;;;;;18.52;4.30;;;;;;;;;;5009153;28;20210;-70
2024/02/05 00:11:37;;;;;;;14.82;4.53;;;;;;;;;;5000279;28;20187;-70
2024/02/05 00:14:02;;;;;;;18.60;5.03;;;;;;;;;;4993870;28;20615;-70
2024/02/05 00:16:27;;;;;;;17.27;4.78;;;;;;;;;;5000963;28;20277;-69
2024/02/05 00:18:52;;;;;;;24.75;5.15;;;;;;;;;;5003415;28;20260;-71
2024/02/05 00:21:18;;;;;;;27.95;5.63;;;;;;;;;;5008804;28;20194;-69
2024/02/05 00:23:43;;;;;;;24.67;5.47;;;;;;;;;;5008974;28;20190;-70
2024/02/05 00:26:08;;;;;;;18.10;4.80;;;;;;;;;;5004402;28;20254;-70
2024/02/05 00:28:33;;;;;;;22.85;4.93;;;;;;;;;;5011112;28;20179;-68
2024/02/05 00:30:58;;;;;;;22.63;4.47;;;;;;;;;;5010144;28;20187;-69
2024/02/05 00:33:24;;;;;;;21.20;4.70;;;;;;;;;;5008586;28;20191;-69
2024/02/05 00:35:49;;;;;;;16.13;4.32;;;;;;;;;;5005242;28;20213;-69
2024/02/05 00:38:14;;;;;;;18.63;4.82;;;;;;;;;;5004185;28;20200;-69
2024/02/05 00:40:41;;;;;;;11.13;3.83;;;;;;;;;;5007562;28;20179;-70
2024/02/05 00:43:07;;;;;;;21.67;4.30;;;;;;;;;;4999660;28;20183;-70
2024/02/05 00:45:32;;;;;;;18.63;4.53;;;;;;;;;;5009950;28;20580;-70
2024/02/05 00:47:57;;;;;;;15.45;4.88;;;;;;;;;;5007289;28;20564;-70
2024/02/05 00:50:23;;;;;;;23.85;4.70;;;;;;;;;;5008170;28;20681;-68
2024/02/05 00:52:48;;;;;;;15.95;4.78;;;;;;;;;;5010581;28;20187;-70
2024/02/05 00:55:13;;;;;;;16.35;5.03;;;;;;;;;;5006439;28;20470;-68
2024/02/05 00:57:38;;;;;;;16.30;4.03;;;;;;;;;;5003938;28;20265;-69
2024/02/05 01:00:07;;;;;;;21.17;5.00;;;;;;;;;;4998759;28;20196;-69
2024/02/05 01:02:32;;;;;;;23.50;5.13;;;;;;;;;;5006091;28;20175;-69
2024/02/05 01:04:58;;;;;;;20.00;4.63;;;;;;;;;;5003452;28;20205;-69
2024/02/05 01:07:23;;;;;;;18.17;3.92;;;;;;;;;;5009117;28;20228;-69
2024/02/05 01:09:48;;;;;;;17.45;4.50;;;;;;;;;;5010303;28;20197;-71
2024/02/05 01:12:13;;;;;;;18.60;5.03;;;;;;;;;;5012728;28;20591;-69
2024/02/05 01:14:38;;;;;;;34.80;5.67;;;;;;;;;;5003511;28;20221;-68
2024/02/05 01:17:05;;;;;;;22.80;5.05;;;;;;;;;;5006381;28;20213;-69
2024/02/05 01:19:31;;;;;;;24.42;5.53;;;;;;;;;;4997666;28;20611;-69
2024/02/05 01:21:56;;;;;;;19.90;4.88;;;;;;;;;;5007644;28;20233;-68
2024/02/05 01:24:21;;;;;;;18.00;4.63;;;;;;;;;;5008868;28;20191;-69
2024/02/05 01:26:46;;;;;;;25.02;6.25;;;;;;;;;;5001867;28;20183;-69
2024/02/05 01:29:11;;;;;;;17.33;5.03;;;;;;;;;;5000300;28;20195;-70
2024/02/05 01:31:37;;;;;;;27.38;4.82;;;;;;;;;;5008178;28;20210;-69
2024/02/05 01:34:03;;;;;;;17.80;5.03;;;;;;;;;;5002250;28;20218;-69
2024/02/05 01:36:29;;;;;;;17.47;4.77;;;;;;;;;;5005975;28;20681;-69
2024/02/05 01:38:55;;;;;;;31.73;6.17;;;;;;;;;;4997116;28;20245;-71
2024/02/05 01:41:21;;;;;;;16.67;4.68;;;;;;;;;;5004819;28;20254;-68
2024/02/05 01:43:46;;;;;;;22.53;5.80;;;;;;;;;;5005654;28;20259;-69
2024/02/05 01:46:19;;;;;;;13.88;4.20;;;;;;;;;;5003811;28;20717;-70
2024/02/05 01:48:45;;;;;;;21.23;4.93;;;;;;;;;;5009625;28;20198;-69
2024/02/05 01:51:13;;;;;;;22.10;5.23;;;;;;;;;;5008170;28;20183;-70
2024/02/05 01:53:39;;;;;;;21.03;5.50;;;;;;;;;;5008818;28;20183;-69
2024/02/05 01:56:05;;;;;;;26.85;5.07;;;;;;;;;;5006245;28;20202;-70
2024/02/05 01:58:30;;;;;;;19.57;6.13;;;;;;;;;;5012548;28;20673;-69
2024/02/05 02:00:55;;;;;;;12.73;5.05;;;;;;;;;;5008081;28;20233;-69
2024/02/05 02:03:21;;;;;;;24.30;5.43;;;;;;;;;;5007558;28;20266;-69
2024/02/05 02:05:46;;;;;;;21.13;5.87;;;;;;;;;;5007822;28;20206;-69
2024/02/05 02:08:13;;;;;;;15.90;5.13;;;;;;;;;;5012876;28;20183;-70
2024/02/05 02:10:39;;;;;;;26.43;5.40;;;;;;;;;;5009939;28;20187;-70
2024/02/05 02:13:04;;;;;;;18.43;4.90;;;;;;;;;;5006590;28;20194;-70
2024/02/05 02:15:29;;;;;;;23.83;5.40;;;;;;;;;;5043312;23;20237;-72
2024/02/05 02:17:56;;;;;;;22.37;7.43;;;;;;;;;;5044961;28;20299;-72
2024/02/05 02:20:24;;;;;;;18.50;5.97;;;;;;;;;;5050760;28;20324;-72
2024/02/05 02:22:49;;;;;;;19.30;4.87;;;;;;;;;;5041832;28;20204;-73
2024/02/05 02:25:15;;;;;;;25.63;6.43;;;;;;;;;;5044827;28;20288;-72
2024/02/05 02:27:41;;;;;;;26.73;5.40;;;;;;;;;;5050215;28;20173;-71
2024/02/05 02:30:07;;;;;;;25.70;5.87;;;;;;;;;;5050333;28;20209;-71
2024/02/05 02:32:56;;;;;;;18.90;4.93;;;;;;;;;;5032782;28;20401;-71
2024/02/05 02:35:29;;;;;;;26.77;5.97;;;;;;;;;;5048796;28;20208;-71
2024/02/05 02:37:59;;;;;;;32.83;6.60;;;;;;;;;;5046912;28;20193;-72
2024/02/05 02:40:25;;;;;;;25.43;7.67;;;;;;;;;;5030182;28;20185;-71
2024/02/05 02:42:53;;;;;;;25.37;6.97;;;;;;;;;;5045354;28;20166;-71
2024/02/05 02:45:19;;;;;;;22.07;6.53;;;;;;;;;;5044740;28;20204;-72
2024/02/05 02:47:44;;;;;;;18.17;6.70;;;;;;;;;;5051112;28;20269;-71
2024/02/05 02:50:09;;;;;;;19.48;6.55;;;;;;;;;;5045608;28;20264;-71
2024/02/05 02:52:34;;;;;;;17.60;4.80;;;;;;;;;;5046206;28;20181;-71
2024/02/05 02:55:00;;;;;;;27.83;5.28;;;;;;;;;;5046000;28;20216;-71
2024/02/05 02:57:25;;;;;;;24.65;5.90;;;;;;;;;;5048689;28;20185;-71
2024/02/05 02:59:51;;;;;;;24.38;6.82;;;;;;;;;;5032452;28;20649;-71
2024/02/05 03:02:16;;;;;;;15.80;6.47;;;;;;;;;;5039860;28;20178;-71
2024/02/05 03:04:41;;;;;;;24.08;5.88;;;;;;;;;;5044690;28;20224;-71
2024/02/05 03:07:07;;;;;;;23.85;5.90;;;;;;;;;;5046914;28;20174;-71
2024/02/05 03:09:32;;;;;;;25.70;6.10;;;;;;;;;;5029240;28;20686;-71
2024/02/05 03:11:57;;;;;;;19.53;5.77;;;;;;;;;;5044465;28;20712;-71
2024/02/05 03:14:25;;;;;;;16.37;5.50;;;;;;;;;;5045101;28;20210;-71
2024/02/05 03:16:50;;;;;;;21.37;5.43;;;;;;;;;;5043563;28;20170;-72
2024/02/05 03:19:16;;;;;;;23.47;6.53;;;;;;;;;;5040151;28;20197;-72
2024/02/05 03:21:41;;;;;;;21.87;5.57;;;;;;;;;;5045225;28;20182;-72
2024/02/05 03:24:06;;;;;;;17.40;5.60;;;;;;;;;;5040668;28;20169;-72
2024/02/05 03:26:33;;;;;;;31.90;5.80;;;;;;;;;;5046249;28;20177;-71
2024/02/05 03:28:58;;;;;;;26.13;6.10;;;;;;;;;;5050720;28;20177;-71
2024/02/05 03:31:23;;;;;;;20.10;5.60;;;;;;;;;;5042967;28;20181;-71
2024/02/05 03:33:49;;;;;;;22.97;6.50;;;;;;;;;;5047404;28;20674;-72
2024/02/05 03:36:14;;;;;;;21.60;5.80;;;;;;;;;;5044310;28;20198;-72
2024/02/05 03:38:39;;;;;;;25.20;5.97;;;;;;;;;;5039734;28;20197;-71
2024/02/05 03:41:04;;;;;;;21.40;5.83;;;;;;;;;;5044732;28;20185;-71
2024/02/05 03:43:29;;;;;;;20.77;6.20;;;;;;;;;;5027993;28;20180;-71
2024/02/05 03:45:54;;;;;;;27.53;6.30;;;;;;;;;;5048621;28;20267;-71
2024/02/05 03:48:20;;;;;;;23.40;6.67;;;;;;;;;;5044801;28;20178;-71
2024/02/05 03:50:45;;;;;;;24.77;7.20;;;;;;;;;;5047866;28;20269;-71
2024/02/05 03:53:11;;;;;;;25.17;6.33;;;;;;;;;;5043306;28;20280;-72
2024/02/05 03:55:36;;;;;;;25.93;7.63;;;;;;;;;;5042809;28;20198;-71
2024/02/05 03:58:03;;;;;;;22.17;5.60;;;;;;;;;;5043766;28;20620;-71
2024/02/05 04:00:28;;;;;;;17.20;7.00;;;;;;;;;;5046774;28;20186;-71
2024/02/05 04:02:53;;;;;;;16.13;5.50;;;;;;;;;;5047319;28;20242;-72
2024/02/05 04:05:18;;;;;;;27.43;5.67;;;;;;;;;;5046815;28;20233;-71
2024/02/05 04:07:44;;;;;;;19.23;6.53;;;;;;;;;;5024975;28;20234;-71
2024/02/05 04:10:09;;;;;;;21.77;6.40;;;;;;;;;;5047298;28;20196;-72
2024/02/05 04:12:34;;;;;;;23.70;5.50;;;;;;;;;;5044866;28;20574;-71
2024/02/05 04:15:00;;;;;;;24.33;5.97;;;;;;;;;;5037658;28;20214;-71
2024/02/05 04:17:25;;;;;;;28.27;7.40;;;;;;;;;;5043337;28;20328;-71
2024/02/05 04:19:50;;;;;;;24.40;6.63;;;;;;;;;;5044477;28;20181;-71
2024/02/05 04:22:16;;;;;;;23.30;6.00;;;;;;;;;;5045908;28;20182;-72
2024/02/05 04:24:41;;;;;;;26.77;7.47;;;;;;;;;;5049072;28;20220;-72
2024/02/05 04:27:09;;;;;;;24.17;7.43;;;;;;;;;;5042644;28;20181;-72
2024/02/05 04:29:34;;;;;;;27.43;6.97;;;;;;;;;;5046992;28;20174;-72
2024/02/05 04:32:00;;;;;;;31.03;8.60;;;;;;;;;;5047553;28;20723;-72
2024/02/05 04:34:25;;;;;;;28.97;7.13;;;;;;;;;;5036120;28;20297;-70
2024/02/05 04:36:52;;;;;;;27.07;6.67;;;;;;;;;;5045549;28;20204;-71
2024/02/05 04:39:18;;;;;;;28.20;7.43;;;;;;;;;;5046672;28;20198;-71
2024/02/05 04:41:43;;;;;;;26.33;6.50;;;;;;;;;;5025584;28;20185;-70
2024/02/05 04:44:09;;;;;;;19.40;7.23;;;;;;;;;;5043469;28;20169;-71
2024/02/05 04:46:35;;;;;;;23.50;7.17;;;;;;;;;;5046425;28;20212;-72
2024/02/05 04:49:00;;;;;;;27.60;7.33;;;;;;;;;;5045742;28;20269;-71
2024/02/05 04:51:25;;;;;;;31.57;7.27;;;;;;;;;;5036640;28;20265;-71
2024/02/05 04:53:51;;;;;;;19.43;6.27;;;;;;;;;;5026820;28;20224;-72
2024/02/05 04:56:16;;;;;;;22.67;6.70;;;;;;;;;;5046314;28;20205;-72
2024/02/05 04:58:41;;;;;;;33.13;6.70;;;;;;;;;;5044879;28;20251;-71
2024/02/05 05:01:06;;;;;;;21.43;7.27;;;;;;;;;;5044875;28;20178;-71
2024/02/05 05:03:34;;;;;;;24.07;8.37;;;;;;;;;;5043996;28;20177;-71
2024/02/05 05:06:00;;;;;;;31.00;7.83;;;;;;;;;;5029274;28;20335;-71
2024/02/05 05:08:25;;;;;;;20.73;6.20;;;;;;;;;;5046164;28;20265;-71
2024/02/05 05:10:50;;;;;;;30.67;8.63;;;;;;;;;;5041252;28;20192;-71
2024/02/05 05:13:15;;;;;;;29.90;8.07;;;;;;;;;;5042091;28;20546;-71
2024/02/05 05:15:40;;;;;;;30.70;6.73;;;;;;;;;;5030020;28;20224;-71
2024/02/05 05:18:06;;;;;;;35.47;7.83;;;;;;;;;;5045896;28;20608;-73
2024/02/05 05:20:31;;;;;;;19.47;6.93;;;;;;;;;;5042104;28;20205;-71
2024/02/05 05:22:56;;;;;;;23.97;5.90;;;;;;;;;;5049655;28;20189;-71
2024/02/05 05:25:21;;;;;;;28.13;6.47;;;;;;;;;;5044497;28;20589;-72
2024/02/05 05:27:47;;;;;;;27.23;6.27;;;;;;;;;;5034574;28;20675;-71
2024/02/05 05:30:12;;;;;;;20.57;7.97;;;;;;;;;;5018563;28;20190;-71
2024/02/05 05:32:37;;;;;;;22.67;6.57;;;;;;;;;;5042756;28;20264;-72
2024/02/05 05:35:03;;;;;;;26.23;7.53;;;;;;;;;;5030103;28;20229;-71
2024/02/05 05:37:29;;;;;;;24.90;6.10;;;;;;;;;;5048581;28;20557;-71
2024/02/05 05:39:54;;;;;;;18.10;6.33;;;;;;;;;;5047301;28;20607;-72
2024/02/05 05:42:20;;;;;;;25.63;6.43;;;;;;;;;;5037558;28;20270;-72
2024/02/05 05:44:45;;;;;;;17.30;6.47;;;;;;;;;;5045063;28;20232;-72
2024/02/05 05:47:11;;;;;;;28.03;6.33;;;;;;;;;;5045590;28;20209;-71
2024/02/05 05:49:36;;;;;;;24.03;6.27;;;;;;;;;;5028757;28;20178;-72
2024/02/05 05:52:01;;;;;;;21.87;6.73;;;;;;;;;;5044634;28;20268;-71
2024/02/05 05:54:26;;;;;;;29.10;7.57;;;;;;;;;;5045106;28;20550;-71
2024/02/05 05:56:52;;;;;;;37.90;8.00;;;;;;;;;;5043170;28;20189;-71
2024/02/05 05:59:18;;;;;;;23.13;6.47;;;;;;;;;;5044148;28;20201;-72
2024/02/05 06:01:43;;;;;;;17.47;6.17;;;;;;;;;;5041194;28;20258;-72
2024/02/05 06:04:08;;;;;;;23.67;5.33;;;;;;;;;;5037237;28;20178;-72
2024/02/05 06:06:35;;;;;;;19.03;6.90;;;;;;;;;;5044899;28;20185;-70
2024/02/05 06:09:03;;;;;;;24.63;7.07;;;;;;;;;;5041070;28;20616;-71
2024/02/05 06:11:28;;;;;;;25.27;6.97;;;;;;;;;;5047077;28;20700;-70
2024/02/05 06:13:53;;;;;;;36.50;6.23;;;;;;;;;;5040414;28;20277;-72
2024/02/05 06:16:18;;;;;;;25.97;7.10;;;;;;;;;;5043782;28;20193;-71
2024/02/05 06:18:43;;;;;;;26.23;6.57;;;;;;;;;;5041062;28;20211;-72
2024/02/05 06:21:09;;;;;;;21.90;6.87;;;;;;;;;;5043946;28;20253;-71
2024/02/05 06:23:34;;;;;;;25.10;7.33;;;;;;;;;;5041047;28;20202;-71
2024/02/05 06:25:59;;;;;;;28.13;6.43;;;;;;;;;;5043269;28;20210;-72
2024/02/05 06:28:24;;;;;;;24.20;6.43;;;;;;;;;;5037535;28;20182;-72
2024/02/05 06:30:50;;;;;;;22.57;6.70;;;;;;;;;;5044307;28;20214;-71
2024/02/05 06:33:16;;;;;;;22.03;6.03;;;;;;;;;;5048405;28;20185;-70
2024/02/05 06:35:41;;;;;;;22.60;9.43;;;;;;;;;;5049231;28;20745;-70
2024/02/05 06:38:06;;;;;;;18.77;6.10;;;;;;;;;;5047905;28;20193;-72
2024/02/05 06:40:32;;;;;;;22.70;7.40;;;;;;;;;;5026556;28;20265;-71
2024/02/05 06:42:58;;;;;;;24.97;6.37;;;;;;;;;;5030532;28;20232;-71
2024/02/05 06:45:23;;;;;;;30.30;7.43;;;;;;;;;;5037742;28;20202;-72
2024/02/05 06:47:49;;;;;;;23.43;5.90;;;;;;;;;;5043173;28;20177;-72
2024/02/05 06:50:14;;;;;;;25.60;6.27;;;;;;;;;;5044884;28;21447;-71
2024/02/05 06:52:39;;;;;;;20.40;5.77;;;;;;;;;;5043052;28;20169;-72
2024/02/05 06:55:05;;;;;;;21.80;7.23;;;;;;;;;;5046243;28;20216;-72
2024/02/05 06:57:30;;;;;;;19.23;6.53;;;;;;;;;;5044560;28;20192;-71
2024/02/05 06:59:55;;;;;;;25.57;6.17;;;;;;;;;;5045195;28;20196;-72
2024/02/05 07:02:20;;;;;;;23.07;6.93;;;;;;;;;;5050105;28;20718;-70
2024/02/05 07:04:45;;;;;;;17.37;6.57;;;;;;;;;;5046402;28;20233;-72
2024/02/05 07:07:11;;;;;;;24.83;5.53;;;;;;;;;;5022067;28;20183;-72
2024/02/05 07:09:38;;;;;;;33.40;7.37;;;;;;;;;;5041688;28;20653;-71
2024/02/05 07:12:03;;;;;;;24.17;6.93;;;;;;;;;;5046701;28;20252;-72
2024/02/05 07:14:28;;;;;;;27.23;6.67;;;;;;;;;;5044173;28;20301;-71
2024/02/05 07:16:53;;;;;;;24.40;5.90;;;;;;;;;;5041594;28;20191;-70
2024/02/05 07:19:19;;;;;;;25.90;6.40;;;;;;;;;;5045397;28;20202;-71
2024/02/05 07:21:44;;;;;;;20.97;6.67;;;;;;;;;;5044628;28;20174;-71
2024/02/05 07:24:10;;;;;;;20.77;5.83;;;;;;;;;;5022815;28;20170;-72
2024/02/05 07:26:35;;;;;;;25.43;6.30;;;;;;;;;;5045497;28;20239;-71
2024/02/05 07:29:00;;;;;;;29.90;6.97;;;;;;;;;;5022846;28;20189;-72
2024/02/05 07:31:26;;;;;;;16.90;5.80;;;;;;;;;;5047772;28;20178;-71
2024/02/05 07:33:51;;;;;;;27.27;6.50;;;;;;;;;;5044293;28;20291;-71
2024/02/05 07:36:16;;;;;;;22.77;7.27;;;;;;;;;;5042181;28;20218;-72
2024/02/05 07:38:41;;;;;;;22.37;6.70;;;;;;;;;;5044796;28;20209;-72
2024/02/05 07:41:07;;;;;;;24.90;6.40;;;;;;;;;;5044667;28;20668;-71
2024/02/05 07:43:32;;;;;;;26.50;6.63;;;;;;;;;;5044923;28;20177;-71
2024/02/05 07:45:57;;;;;;;15.47;5.50;;;;;;;;;;5024757;28;20703;-72
2024/02/05 07:48:22;;;;;;;33.87;7.30;;;;;;;;;;5028325;28;20637;-71
2024/02/05 07:50:48;;;;;;;23.10;5.80;;;;;;;;;;5044709;28;20178;-70
2024/02/05 07:53:13;;;;;;;20.20;5.77;;;;;;;;;;5045562;28;20216;-71
2024/02/05 07:55:39;;;;;;;24.90;5.77;;;;;;;;;;5048225;28;20205;-71
2024/02/05 07:58:05;;;;;;;25.20;5.73;;;;;;;;;;5030464;28;20212;-72
2024/02/05 08:00:30;;;;;;;21.90;5.03;;;;;;;;;;5047934;28;20189;-71
2024/02/05 08:02:55;;;;;;;22.13;5.60;;;;;;;;;;5049591;28;20252;-71
2024/02/05 08:05:20;;;;;;;18.60;7.10;;;;;;;;;;5044746;28;20201;-71
2024/02/05 08:07:46;;;;;;;19.37;5.97;;;;;;;;;;5042841;28;20169;-70
2024/02/05 08:10:11;;;;;;;25.40;6.67;;;;;;;;;;5041130;28;20181;-70
2024/02/05 08:12:36;;;;;;;24.63;5.73;;;;;;;;;;5040065;28;20213;-71
2024/02/05 08:15:02;;;;;;;20.23;6.57;;;;;;;;;;5054408;22;20235;-67
2024/02/05 08:17:27;;;;;;;26.93;6.53;;;;;;;;;;5048406;28;20550;-66
2024/02/05 08:19:52;;;;;;;21.97;6.77;;;;;;;;;;5046110;28;20303;-67
2024/02/05 08:22:17;;;;;;;28.87;7.13;;;;;;;;;;5048687;28;20213;-66
2024/02/05 08:24:43;;;;;;;20.67;6.47;;;;;;;;;;5052806;28;20197;-66
2024/02/05 08:27:08;;;;;;;26.53;6.50;;;;;;;;;;5032216;28;20255;-67
2024/02/05 08:29:33;;;;;;;16.23;6.30;;;;;;;;;;5028908;28;20174;-68
2024/02/05 08:31:59;;;;;;;39.47;7.07;;;;;;;;;;5024785;28;20178;-67
2024/02/05 08:34:24;;;;;;;20.73;5.80;;;;;;;;;;5029614;28;20267;-67
2024/02/05 08:36:49;;;;;;;21.30;6.87;;;;;;;;;;5027329;28;20182;-68
2024/02/05 08:39:15;;;;;;;23.20;5.93;;;;;;;;;;5027937;28;20214;-68
2024/02/05 08:41:40;;;;;;;28.73;6.77;;;;;;;;;;5029328;28;20186;-68
2024/02/05 08:44:07;;;;;;;27.70;6.53;;;;;;;;;;5030363;28;20667;-68
2024/02/05 08:46:32;;;;;;;16.20;5.23;;;;;;;;;;5028267;28;20586;-68
2024/02/05 08:48:57;;;;;;;22.73;6.30;;;;;;;;;;5030148;28;20189;-67
2024/02/05 08:51:22;;;;;;;23.27;5.90;;;;;;;;;;5014363;28;20273;-67
2024/02/05 08:53:48;;;;;;;18.47;5.93;;;;;;;;;;5029931;28;20213;-68
2024/02/05 08:56:13;;;;;;;19.67;5.73;;;;;;;;;;5028010;28;20206;-68
2024/02/05 08:58:38;;;;;;;21.73;5.47;;;;;;;;;;5030506;28;20204;-68
2024/02/05 09:01:03;;;;;;;19.63;4.23;;;;;;;;;;5012852;28;20183;-67
2024/02/05 09:03:29;;;;;;;19.50;5.20;;;;;;;;;;5021452;28;20177;-68
2024/02/05 09:05:54;;;;;;;38.40;6.03;;;;;;;;;;5030326;28;20206;-68
2024/02/05 09:08:19;;;;;;;25.07;5.50;;;;;;;;;;5030653;28;20190;-68
2024/02/05 09:10:44;;;;;;;26.07;6.27;;;;;;;;;;5028221;28;20182;-68
2024/02/05 09:13:10;;;;;;;16.00;5.07;;;;;;;;;;5030257;28;20224;-68
2024/02/05 09:15:35;;;;;;;21.73;4.97;;;;;;;;;;5029514;28;20869;-68
2024/02/05 09:18:01;;;;;;;25.80;5.50;;;;;;;;;;5023398;28;20655;-68
2024/02/05 09:20:26;;;;;;;28.23;6.30;;;;;;;;;;5028436;28;20198;-67
2024/02/05 09:22:53;;;;;;;18.63;5.53;;;;;;;;;;5030142;28;20584;-69
2024/02/05 09:25:19;;;;;;;17.97;5.27;;;;;;;;;;5027351;28;20198;-68
2024/02/05 09:27:44;;;;;;;22.77;5.87;;;;;;;;;;5029241;28;20558;-69
2024/02/05 09:30:09;;;;;;;22.80;5.23;;;;;;;;;;5029054;28;20558;-69
2024/02/05 09:32:34;;;;;;;22.17;6.00;;;;;;;;;;5029555;28;20186;-69
2024/02/05 09:35:00;;;;;;;25.57;5.53;;;;;;;;;;5028433;28;20202;-68
2024/02/05 09:37:25;;;;;;;19.23;6.27;;;;;;;;;;5011633;28;20257;-68
2024/02/05 09:39:50;;;;;;;18.00;4.63;;;;;;;;;;5028300;28;20202;-68
2024/02/05 09:42:15;;;;;;;24.77;5.70;;;;;;;;;;5025376;28;20186;-68
2024/02/05 09:44:44;;;;;;;20.50;5.73;;;;;;;;;;5028355;28;20276;-69
2024/02/05 09:47:10;;;;;;;23.20;5.87;;;;;;;;;;5029108;28;20182;-66
2024/02/05 09:49:36;;;;;;;25.20;5.70;;;;;;;;;;5028425;28;20189;-69
2024/02/05 09:52:03;;;;;;;25.90;5.47;;;;;;;;;;5029142;28;20197;-69
2024/02/05 09:54:28;;;;;;;21.57;6.00;;;;;;;;;;5010851;28;20213;-67
2024/02/05 09:56:54;;;;;;;31.57;6.90;;;;;;;;;;5027304;28;20178;-69
2024/02/05 09:59:19;;;;;;;22.53;6.13;;;;;;;;;;5025936;28;20582;-69
2024/02/05 10:01:45;;;;;;;20.43;4.87;;;;;;;;;;5028940;28;20182;-68
2024/02/05 10:04:11;;;;;;;24.77;5.80;;;;;;;;;;5010919;28;20646;-67
2024/02/05 10:06:38;;;;;;;26.67;7.22;;;;;;;;;;5031702;28;20205;-68
2024/02/05 10:09:04;;;;;;;26.20;6.53;;;;;;;;;;5030562;28;20197;-68
2024/02/05 10:11:30;;;;;;;25.23;6.00;;;;;;;;;;5028793;28;20182;-68
2024/02/05 10:13:56;;;;;;;22.83;6.03;;;;;;;;;;5032709;28;20186;-68
2024/02/05 10:16:22;;;;;;;26.27;6.93;;;;;;;;;;4992893;28;1083399;-69
2024/02/05 10:18:47;;;;;;;28.50;6.77;;;;;;;;;;5026814;28;20213;-67
2024/02/05 10:21:12;;;;;;;15.88;6.63;;;;;;;;;;5023679;28;20190;-68
2024/02/05 10:23:38;;;;;;;29.57;6.93;;;;;;;;;;5014799;28;20654;-68
2024/02/05 10:26:05;;;;;;;25.88;7.47;;;;;;;;;;5031868;28;20199;-68
2024/02/05 10:28:30;;;;;;;24.83;8.55;;;;;;;;;;5029112;28;20186;-68
2024/02/05 10:31:10;;;;;;;18.77;7.30;;;;;;;;;;5031402;28;20270;-68
2024/02/05 10:33:36;;;;;;;33.20;7.60;;;;;;;;;;5023983;28;20186;-67
2024/02/05 10:36:01;;;;;;;24.48;6.68;;;;;;;;;;5030230;28;20202;-69
2024/02/05 10:38:27;;;;;;;24.47;6.40;;;;;;;;;;5033046;28;20260;-69
2024/02/05 10:40:52;;;;;;;27.27;6.60;;;;;;;;;;5012533;28;20269;-69
2024/02/05 10:43:18;;;;;;;33.90;6.68;;;;;;;;;;5032470;28;20175;-68
2024/02/05 10:45:43;;;;;;;24.43;6.23;;;;;;;;;;5007821;28;20198;-69
2024/02/05 10:48:08;;;;;;;25.88;7.43;;;;;;;;;;5026082;28;20185;-69
2024/02/05 10:50:34;;;;;;;23.02;7.85;;;;;;;;;;5033041;28;20657;-69
2024/02/05 10:52:59;;;;;;;28.65;6.88;;;;;;;;;;5033257;28;20185;-68
2024/02/05 10:55:24;;;;;;;23.75;6.03;;;;;;;;;;5033027;28;20222;-68
2024/02/05 10:57:53;;;;;;;24.45;7.32;;;;;;;;;;5032024;28;20210;-68
2024/02/05 11:00:19;;;;;;;24.05;6.53;;;;;;;;;;5010541;28;20779;-68
2024/02/05 11:02:54;;;;;;;15.82;6.93;;;;;;;;;;5012925;28;20266;-68
2024/02/05 11:05:20;;;;;;;22.77;5.70;;;;;;;;;;5032402;28;20202;-68
2024/02/05 11:07:48;;;;;;;27.05;6.13;;;;;;;;;;5031814;28;20672;-68
2024/02/05 11:10:14;;;;;;;16.98;7.60;;;;;;;;;;5032612;28;20202;-69
2024/02/05 11:12:42;;;;;;;31.70;7.22;;;;;;;;;;5033172;28;20264;-68
2024/02/05 11:15:09;;;;;;;17.23;6.10;;;;;;;;;;5031129;28;20618;-69
2024/02/05 11:17:35;;;;;;;16.15;6.55;;;;;;;;;;5013166;28;20447;-69
2024/02/05 11:20:02;;;;;;;22.90;6.88;;;;;;;;;;5032526;28;20244;-68
2024/02/05 11:22:27;;;;;;;25.98;6.47;;;;;;;;;;5032621;28;20220;-68
2024/02/05 11:24:53;;;;;;;23.25;5.97;;;;;;;;;;5032053;28;20199;-68
2024/02/05 11:27:18;;;;;;;22.13;6.18;;;;;;;;;;5032815;28;20178;-69
2024/02/05 11:29:44;;;;;;;22.40;6.68;;;;;;;;;;5029919;28;20269;-69
2024/02/05 11:32:09;;;;;;;19.55;5.40;;;;;;;;;;5030007;28;20520;-69
2024/02/05 11:34:40;;;;;;;21.50;5.65;;;;;;;;;;5010401;28;20245;-69
2024/02/05 11:37:21;;;;;;;19.30;6.82;;;;;;;;;;5027075;28;20194;-68
2024/02/05 11:39:46;;;;;;;22.77;5.70;;;;;;;;;;5024998;28;20263;-68
2024/02/05 11:42:14;;;;;;;19.02;5.38;;;;;;;;;;5012882;28;20621;-67
2024/02/05 11:44:39;;;;;;;17.52;5.57;;;;;;;;;;5028448;28;20217;-68
2024/02/05 11:47:05;;;;;;;29.52;6.20;;;;;;;;;;5027632;28;20661;-69
2024/02/05 11:49:31;;;;;;;18.88;6.07;;;;;;;;;;5030445;28;20194;-67
2024/02/05 11:51:56;;;;;;;22.05;5.07;;;;;;;;;;5012595;28;20189;-67
2024/02/05 11:54:21;;;;;;;22.13;4.75;;;;;;;;;;5029576;28;20178;-68
2024/02/05 11:56:46;;;;;;;18.55;5.30;;;;;;;;;;5027941;28;20254;-69
2024/02/05 11:59:11;;;;;;;23.40;4.65;;;;;;;;;;5011121;28;20223;-68
2024/02/05 12:01:37;;;;;;;21.15;6.40;;;;;;;;;;5027527;28;20219;-67
2024/02/05 12:04:03;;;;;;;22.52;5.20;;;;;;;;;;5031660;28;20174;-68
2024/02/05 12:06:29;;;;;;;24.27;5.80;;;;;;;;;;5031305;28;20679;-68
2024/02/05 12:08:54;;;;;;;19.23;5.93;;;;;;;;;;5031332;28;20174;-68
2024/02/05 12:11:21;;;;;;;27.73;7.57;;;;;;;;;;5024933;28;20248;-68
2024/02/05 12:13:55;;;;;;;10.63;5.13;;;;;;;;;;5023041;28;20266;-68
2024/02/05 12:16:24;;;;;;;20.55;5.65;;;;;;;;;;5041630;28;20217;-67
2024/02/05 12:18:51;;;;;;;19.75;4.97;;;;;;;;;;5018926;28;20197;-68
2024/02/05 12:21:16;;;;;;;17.35;5.13;;;;;;;;;;5026602;28;20190;-68
2024/02/05 12:23:42;;;;;;;16.02;5.43;;;;;;;;;;5025533;28;20171;-68
2024/02/05 12:26:09;;;;;;;18.40;5.97;;;;;;;;;;5025281;28;20202;-68
2024/02/05 12:28:34;;;;;;;22.63;5.25;;;;;;;;;;5027526;28;20755;-68
2024/02/05 12:30:59;;;;;;;25.02;5.97;;;;;;;;;;5008157;28;20186;-66
2024/02/05 12:33:26;;;;;;;19.75;4.88;;;;;;;;;;5008672;28;20712;-68
2024/02/05 12:35:55;;;;;;;25.30;6.18;;;;;;;;;;5012668;28;20241;-68
2024/02/05 12:38:20;;;;;;;14.90;4.88;;;;;;;;;;5029624;28;20263;-68
2024/02/05 12:40:48;;;;;;;19.67;6.43;;;;;;;;;;5030539;28;20257;-68
2024/02/05 12:43:13;;;;;;;23.88;5.53;;;;;;;;;;5029228;28;20294;-68
2024/02/05 12:45:38;;;;;;;22.02;5.93;;;;;;;;;;5005547;28;20293;-67
2024/02/05 12:48:05;;;;;;;13.75;4.40;;;;;;;;;;5029380;28;20209;-68
2024/02/05 12:50:30;;;;;;;16.00;4.50;;;;;;;;;;5030371;28;20297;-69
2024/02/05 12:52:55;;;;;;;27.05;5.28;;;;;;;;;;5030323;28;20178;-68
2024/02/05 12:55:23;;;;;;;16.38;4.40;;;;;;;;;;5029770;28;20206;-68
2024/02/05 12:57:48;;;;;;;21.92;5.65;;;;;;;;;;5026925;28;20301;-69
2024/02/05 13:00:14;;;;;;;19.77;5.15;;;;;;;;;;5029323;28;20674;-68
2024/02/05 13:02:39;;;;;;;21.13;6.05;;;;;;;;;;5029748;28;20266;-68
2024/02/05 13:05:04;;;;;;;15.68;5.43;;;;;;;;;;5027606;28;20229;-69
2024/02/05 13:07:30;;;;;;;18.13;6.25;;;;;;;;;;5027465;28;20691;-68
2024/02/05 13:09:55;;;;;;;13.60;5.13;;;;;;;;;;5025592;28;20692;-69
2024/02/05 13:12:20;;;;;;;20.55;4.65;;;;;;;;;;5023590;28;20178;-68
2024/02/05 13:14:45;;;;;;;19.98;4.50;;;;;;;;;;5028421;28;20720;-68
2024/02/05 13:17:11;;;;;;;19.23;6.80;;;;;;;;;;5026722;28;20202;-67
2024/02/05 13:19:37;;;;;;;16.00;4.60;;;;;;;;;;5011122;28;20205;-67
2024/02/05 13:22:04;;;;;;;17.42;5.25;;;;;;;;;;5029921;28;20549;-67
2024/02/05 13:24:30;;;;;;;20.67;4.20;;;;;;;;;;5030701;28;20190;-67
2024/02/05 13:26:55;;;;;;;16.27;4.03;;;;;;;;;;5028909;28;20170;-67
2024/02/05 13:29:22;;;;;;;16.80;4.55;;;;;;;;;;5025954;28;20182;-67
2024/02/05 13:31:47;;;;;;;19.50;4.60;;;;;;;;;;5028700;28;20197;-67
2024/02/05 13:34:20;;;;;;;10.80;4.43;;;;;;;;;;5029625;28;20170;-67
2024/02/05 13:36:45;;;;;;;20.75;5.03;;;;;;;;;;5029351;28;20325;-67
2024/02/05 13:39:10;;;;;;;24.23;5.00;;;;;;;;;;5010270;28;20685;-68
2024/02/05 13:41:38;;;;;;;17.77;3.97;;;;;;;;;;5030491;28;20676;-67
2024/02/05 13:44:04;;;;;;;20.20;4.95;;;;;;;;;;5024766;28;20182;-67
2024/02/05 13:46:29;;;;;;;20.45;4.13;;;;;;;;;;5030893;28;20201;-67
2024/02/05 13:48:54;;;;;;;20.85;4.82;;;;;;;;;;5026580;28;20193;-67
2024/02/05 13:51:19;;;;;;;13.95;3.33;;;;;;;;;;5033149;28;20174;-67
2024/02/05 13:53:45;;;;;;;11.50;3.25;;;;;;;;;;5033343;28;20248;-67
2024/02/05 13:56:10;;;;;;;14.90;4.07;;;;;;;;;;5030743;28;20225;-68
2024/02/05 13:58:35;;;;;;;13.00;3.67;;;;;;;;;;5025088;28;20237;-67
2024/02/05 14:01:00;;;;;;;20.10;4.20;;;;;;;;;;5033254;28;20172;-67
2024/02/05 14:03:25;;;;;;;14.98;4.00;;;;;;;;;;5033382;28;20217;-67
2024/02/05 14:05:51;;;;;;;14.32;3.95;;;;;;;;;;5029148;28;20198;-67
2024/02/05 14:08:16;;;;;;;13.75;4.53;;;;;;;;;;5029945;28;20205;-67
2024/02/05 14:10:41;;;;;;;16.35;3.90;;;;;;;;;;5032792;28;20261;-67
2024/02/05 14:13:06;;;;;;;14.68;3.95;;;;;;;;;;5031147;28;20820;-67
2024/02/05 14:15:32;;;;;;;10.88;3.72;;;;;;;;;;5050830;22;20229;-70
2024/02/05 14:17:57;;;;;;;10.43;3.45;;;;;;;;;;5051095;28;20235;-70
2024/02/05 14:20:23;;;;;;;15.88;3.38;;;;;;;;;;5050595;28;20174;-70
2024/02/05 14:22:49;;;;;;;17.35;4.80;;;;;;;;;;5053090;28;20204;-70